Time;durP1;ratioP1;P1;durP2;ratioP2;P2;SDS_P1;SDS_P2;PMS_P1;PMS_P2;Temp;Humidity;BMP_temperature;BMP_pressure;BME280_temperature;BME280_humidity;BME280_pressure;Samples;Min_cycle;Max_cycle;Signal;HPM_P1;HPM_P2
2021/08/07 00:01:13;;;;;;;2.53;1.42;;;16.00;99.90;;;;;;6273010;28;20131;-76
2021/08/07 00:04:14;;;;;;;5.15;1.80;;;16.00;99.90;;;;;;6273245;28;20127;-76
2021/08/07 00:07:18;;;;;;;2.88;1.38;;;15.90;99.90;;;;;;6272901;28;20086;-76
2021/08/07 00:10:20;;;;;;;4.35;2.08;;;15.90;99.90;;;;;;6273777;28;20200;-76
2021/08/07 00:13:22;;;;;;;3.50;2.40;;;15.90;99.90;;;;;;6272865;28;20563;-76
2021/08/07 00:16:23;;;;;;;5.15;1.42;;;15.80;99.90;;;;;;6272726;28;20090;-76
2021/08/07 00:19:25;;;;;;;5.53;2.15;;;15.80;99.90;;;;;;6272844;28;20049;-76
2021/08/07 00:22:28;;;;;;;2.45;1.50;;;15.70;99.90;;;;;;6273478;28;20053;-75
2021/08/07 00:25:30;;;;;;;4.22;1.65;;;15.60;99.90;;;;;;6272745;28;20044;-76
2021/08/07 00:28:32;;;;;;;6.38;2.03;;;15.60;99.90;;;;;;6272326;28;20048;-76
2021/08/07 00:31:34;;;;;;;3.80;1.77;;;15.60;99.90;;;;;;6272454;28;20511;-76
2021/08/07 00:34:36;;;;;;;5.18;1.73;;;15.50;99.90;;;;;;6272300;28;20131;-75
2021/08/07 00:37:39;;;;;;;3.92;2.40;;;15.50;99.90;;;;;;6272755;28;20053;-76
2021/08/07 00:40:41;;;;;;;2.22;1.80;;;15.50;99.90;;;;;;6272253;28;20460;-76
2021/08/07 00:43:42;;;;;;;6.47;1.40;;;15.50;99.90;;;;;;6271598;28;20502;-75
2021/08/07 00:46:44;;;;;;;8.43;1.80;;;15.60;99.90;;;;;;6271888;28;20407;-76
2021/08/07 00:49:47;;;;;;;6.15;1.77;;;15.60;99.90;;;;;;6272547;28;20123;-76
2021/08/07 00:52:50;;;;;;;3.85;2.17;;;15.60;99.90;;;;;;6271954;28;20044;-76
2021/08/07 00:55:52;;;;;;;7.03;1.80;;;15.60;99.90;;;;;;6271963;28;20073;-76
2021/08/07 00:58:54;;;;;;;4.53;2.13;;;15.60;99.90;;;;;;6271976;28;20047;-76
2021/08/07 01:01:59;;;;;;;4.25;3.85;;;15.60;99.90;;;;;;6272524;28;20130;-76
2021/08/07 01:05:06;;;;;;;1.92;1.50;;;15.70;99.90;;;;;;6271573;28;20124;-75
2021/08/07 01:08:17;;;;;;;1.98;1.50;;;15.70;99.90;;;;;;6271458;28;20044;-76
2021/08/07 01:11:25;;;;;;;6.72;1.98;;;15.80;99.90;;;;;;6271599;28;20384;-75
2021/08/07 01:14:34;;;;;;;3.08;1.55;;;15.70;99.90;;;;;;6272162;28;20084;-76
2021/08/07 01:17:38;;;;;;;5.22;1.73;;;15.80;99.90;;;;;;6271432;28;20048;-76
2021/08/07 01:20:44;;;;;;;2.83;1.30;;;15.70;99.90;;;;;;6271383;28;20045;-76
2021/08/07 01:23:52;;;;;;;1.77;1.67;;;15.70;99.90;;;;;;6271522;28;20049;-76
2021/08/07 01:27:08;;;;;;;5.97;3.60;;;15.70;99.90;;;;;;6271428;28;20049;-76
2021/08/07 01:30:13;;;;;;;2.35;2.10;;;15.60;99.90;;;;;;6272108;28;20045;-76
2021/08/07 01:33:16;;;;;;;2.35;1.38;;;15.70;99.90;;;;;;6271307;28;20083;-76
2021/08/07 01:36:19;;;;;;;3.33;1.52;;;15.70;99.90;;;;;;6270707;28;20544;-76
2021/08/07 01:39:20;;;;;;;3.55;1.33;;;15.70;99.90;;;;;;6271826;28;20068;-74
2021/08/07 01:42:24;;;;;;;4.60;2.42;;;15.80;99.90;;;;;;6272226;28;20098;-76
2021/08/07 01:45:26;;;;;;;6.63;1.63;;;15.80;99.90;;;;;;6271104;28;20074;-76
2021/08/07 01:48:34;;;;;;;2.80;1.40;;;15.90;99.90;;;;;;6270740;28;20156;-76
2021/08/07 01:51:41;;;;;;;2.78;1.98;;;15.90;99.90;;;;;;6271226;28;20128;-75
2021/08/07 01:54:48;;;;;;;2.92;1.63;;;15.90;99.90;;;;;;6271056;28;20056;-75
2021/08/07 01:57:56;;;;;;;4.95;1.35;;;16.00;99.90;;;;;;6271475;28;20045;-76
2021/08/07 02:01:00;;;;;;;3.80;1.90;;;15.90;99.90;;;;;;6270906;28;20518;-76
2021/08/07 02:04:03;;;;;;;2.40;1.80;;;15.90;99.90;;;;;;6270789;28;20071;-76
2021/08/07 02:07:05;;;;;;;4.80;2.80;;;16.00;99.90;;;;;;6271051;28;20118;-76
2021/08/07 02:10:09;;;;;;;5.57;1.73;;;16.00;99.90;;;;;;6271593;28;20131;-76
2021/08/07 02:13:15;;;;;;;5.28;1.50;;;16.00;99.90;;;;;;6270881;28;20080;-76
2021/08/07 02:16:19;;;;;;;12.57;2.10;;;16.00;99.90;;;;;;6270880;28;20045;-76
2021/08/07 02:19:21;;;;;;;2.33;1.48;;;16.00;99.90;;;;;;6274146;28;20069;-76
2021/08/07 02:22:23;;;;;;;2.75;1.98;;;16.00;99.90;;;;;;6275886;28;20135;-76
2021/08/07 02:25:25;;;;;;;4.28;1.38;;;16.00;99.90;;;;;;6275359;28;20045;-76
2021/08/07 02:28:29;;;;;;;2.47;1.50;;;16.00;99.90;;;;;;6275201;28;20047;-76
2021/08/07 02:31:32;;;;;;;5.38;1.45;;;16.00;99.90;;;;;;6275223;28;20568;-76
2021/08/07 02:34:36;;;;;;;3.08;1.52;;;16.10;99.90;;;;;;6275078;28;20150;-75
2021/08/07 02:37:39;;;;;;;5.30;1.58;;;16.10;99.90;;;;;;6275391;28;20049;-76
2021/08/07 02:40:41;;;;;;;4.05;1.45;;;16.10;99.90;;;;;;6275089;28;20048;-76
2021/08/07 02:43:44;;;;;;;5.55;2.15;;;16.20;99.90;;;;;;6275233;28;20052;-75
2021/08/07 02:46:47;;;;;;;5.55;1.40;;;16.10;99.90;;;;;;6274680;28;20573;-76
2021/08/07 02:49:49;;;;;;;2.30;1.30;;;16.10;99.90;;;;;;6276074;28;20057;-75
2021/08/07 02:52:52;;;;;;;4.55;1.67;;;16.10;99.90;;;;;;6274962;28;20051;-76
2021/08/07 02:55:54;;;;;;;3.55;1.65;;;16.20;99.90;;;;;;6274442;28;20107;-75
2021/08/07 02:58:57;;;;;;;7.32;1.90;;;16.20;99.90;;;;;;6274664;28;20056;-74
2021/08/07 03:01:59;;;;;;;3.70;1.90;;;16.20;99.90;;;;;;6274800;28;20098;-75
2021/08/07 03:05:01;;;;;;;6.32;2.58;;;16.20;99.90;;;;;;6274569;28;20078;-75
2021/08/07 03:08:03;;;;;;;4.00;1.80;;;16.20;99.90;;;;;;6274115;28;20171;-75
2021/08/07 03:11:05;;;;;;;6.47;2.10;;;16.30;99.90;;;;;;6274547;28;20073;-75
2021/08/07 03:14:08;;;;;;;8.00;1.63;;;16.30;99.90;;;;;;6274887;28;20195;-75
2021/08/07 03:17:10;;;;;;;3.75;1.83;;;16.30;99.90;;;;;;6274044;28;20071;-75
2021/08/07 03:20:13;;;;;;;3.42;1.63;;;16.30;99.90;;;;;;6273939;28;20044;-75
2021/08/07 03:23:15;;;;;;;5.78;1.30;;;16.30;99.90;;;;;;6274123;28;20598;-75
2021/08/07 03:26:17;;;;;;;2.88;1.63;;;16.30;99.90;;;;;;6274263;28;20122;-75
2021/08/07 03:29:20;;;;;;;8.52;3.03;;;16.40;99.90;;;;;;6273545;28;20132;-75
2021/08/07 03:32:22;;;;;;;4.65;1.65;;;16.40;99.90;;;;;;6273952;28;20044;-75
2021/08/07 03:35:24;;;;;;;2.97;2.08;;;16.50;99.90;;;;;;6273714;28;20045;-75
2021/08/07 03:38:26;;;;;;;8.32;2.35;;;16.50;99.90;;;;;;6273782;28;20498;-75
2021/08/07 03:41:28;;;;;;;3.42;2.40;;;16.60;99.90;;;;;;6273581;28;20524;-75
2021/08/07 03:44:31;;;;;;;4.93;2.78;;;16.50;99.90;;;;;;6273805;28;20148;-75
2021/08/07 03:47:33;;;;;;;4.45;1.98;;;16.50;99.90;;;;;;6272929;28;20548;-74
2021/08/07 03:50:35;;;;;;;4.45;1.67;;;16.50;99.90;;;;;;6273370;28;20053;-74
2021/08/07 03:53:36;;;;;;;14.90;2.53;;;16.50;99.90;;;;;;6273755;28;20053;-74
2021/08/07 03:56:38;;;;;;;4.07;1.70;;;16.40;99.90;;;;;;6273137;28;20048;-75
2021/08/07 03:59:41;;;;;;;7.28;2.30;;;16.50;99.90;;;;;;6273148;28;20065;-75
2021/08/07 04:02:43;;;;;;;5.57;1.77;;;16.50;99.90;;;;;;6273060;28;20080;-74
2021/08/07 04:05:45;;;;;;;1.90;1.60;;;16.60;99.90;;;;;;6273246;28;20088;-75
2021/08/07 04:08:47;;;;;;;2.28;1.90;;;16.50;99.90;;;;;;6272792;28;20457;-75
2021/08/07 04:11:48;;;;;;;3.67;1.58;;;16.50;99.90;;;;;;6273061;28;20052;-75
2021/08/07 04:14:52;;;;;;;7.57;1.98;;;16.60;99.90;;;;;;6272879;28;20133;-75
2021/08/07 04:17:54;;;;;;;3.85;1.92;;;16.50;99.90;;;;;;6272865;28;20525;-75
2021/08/07 04:20:55;;;;;;;4.70;1.50;;;16.60;99.90;;;;;;6272500;28;20133;-75
2021/08/07 04:23:57;;;;;;;2.88;1.70;;;16.60;99.90;;;;;;6272811;28;20127;-75
2021/08/07 04:26:59;;;;;;;5.32;1.90;;;16.60;99.90;;;;;;6272237;28;20048;-75
2021/08/07 04:30:03;;;;;;;7.68;2.65;;;16.50;99.90;;;;;;6273000;28;20076;-75
2021/08/07 04:33:05;;;;;;;6.25;1.90;;;16.50;99.90;;;;;;6272443;28;20053;-75
2021/08/07 04:36:07;;;;;;;6.55;2.00;;;16.40;99.90;;;;;;6272125;28;20135;-75
2021/08/07 04:39:09;;;;;;;3.95;1.92;;;16.40;99.90;;;;;;6272177;28;20041;-75
2021/08/07 04:42:11;;;;;;;6.45;1.58;;;16.50;99.90;;;;;;6272113;28;20049;-74
2021/08/07 04:45:14;;;;;;;2.63;1.60;;;16.40;99.90;;;;;;6272071;28;20507;-74
2021/08/07 04:48:16;;;;;;;4.40;2.08;;;16.50;99.90;;;;;;6271895;28;20175;-74
2021/08/07 04:51:18;;;;;;;3.05;1.67;;;16.50;99.90;;;;;;6271964;28;20409;-75
2021/08/07 04:54:20;;;;;;;1.90;1.70;;;16.50;99.90;;;;;;6272383;28;20469;-75
2021/08/07 04:57:22;;;;;;;4.68;1.52;;;16.50;99.90;;;;;;6271528;28;20113;-75
2021/08/07 05:00:25;;;;;;;4.25;1.80;;;16.50;99.90;;;;;;6271830;28;20491;-75
2021/08/07 05:03:27;;;;;;;2.05;1.50;;;16.50;99.90;;;;;;6271979;28;20044;-74
2021/08/07 05:06:28;;;;;;;4.05;1.75;;;16.50;99.90;;;;;;6271650;28;20049;-75
2021/08/07 05:09:30;;;;;;;4.47;1.40;;;16.60;99.90;;;;;;6271867;28;20106;-75
2021/08/07 05:12:32;;;;;;;8.65;2.83;;;16.70;99.90;;;;;;6271597;28;20059;-75
2021/08/07 05:15:35;;;;;;;5.38;1.50;;;16.80;99.90;;;;;;6271786;28;20122;-75
2021/08/07 05:18:37;;;;;;;1.50;1.20;;;16.90;99.90;;;;;;6271365;28;20136;-74
2021/08/07 05:21:40;;;;;;;2.53;1.10;;;16.90;99.90;;;;;;6272156;28;20094;-74
2021/08/07 05:24:41;;;;;;;4.75;2.08;;;17.10;99.90;;;;;;6271559;28;20049;-75
2021/08/07 05:27:43;;;;;;;2.13;1.40;;;17.20;99.90;;;;;;6271238;28;20129;-75
2021/08/07 05:30:46;;;;;;;3.35;2.30;;;17.30;99.90;;;;;;6271787;28;20175;-74
2021/08/07 05:33:48;;;;;;;2.53;1.30;;;17.40;99.90;;;;;;6271714;28;20048;-75
2021/08/07 05:36:50;;;;;;;10.38;1.40;;;17.50;99.90;;;;;;6271705;28;20483;-74
2021/08/07 05:39:52;;;;;;;3.78;1.67;;;17.60;99.90;;;;;;6272346;28;20122;-75
2021/08/07 05:42:53;;;;;;;4.18;2.10;;;17.70;99.90;;;;;;6272897;28;20131;-75
2021/08/07 05:45:57;;;;;;;3.50;1.58;;;17.70;99.90;;;;;;6272346;28;20080;-74
2021/08/07 05:48:58;;;;;;;4.43;1.92;;;17.90;99.90;;;;;;6271872;28;20118;-74
2021/08/07 05:52:00;;;;;;;5.38;2.13;;;18.00;99.80;;;;;;6272421;28;20524;-75
2021/08/07 05:55:02;;;;;;;14.25;3.20;;;18.20;99.90;;;;;;6276343;28;20048;-75
2021/08/07 05:58:04;;;;;;;2.42;1.48;;;18.50;99.30;;;;;;6276264;28;20114;-75
2021/08/07 06:01:08;;;;;;;2.08;1.95;;;18.70;97.20;;;;;;6275627;28;20048;-75
2021/08/07 06:04:10;;;;;;;4.28;1.38;;;18.80;96.80;;;;;;6273648;28;20075;-75
2021/08/07 06:07:12;;;;;;;2.10;1.17;;;18.90;96.30;;;;;;6298723;28;20119;-75
2021/08/07 06:10:13;;;;;;;2.50;1.70;;;19.20;95.90;;;;;;6301095;28;20072;-75
2021/08/07 06:13:15;;;;;;;4.25;2.53;;;19.70;94.70;;;;;;6300375;28;20045;-75
2021/08/07 06:16:18;;;;;;;1.95;1.00;;;20.00;93.30;;;;;;6300279;28;20139;-75
2021/08/07 06:19:20;;;;;;;2.25;1.17;;;20.10;91.50;;;;;;6300180;28;20459;-75
2021/08/07 06:22:22;;;;;;;9.27;1.98;;;20.10;90.00;;;;;;6300635;28;20135;-74
2021/08/07 06:25:24;;;;;;;4.50;1.23;;;20.10;89.40;;;;;;6300088;28;20510;-75
2021/08/07 06:28:26;;;;;;;13.57;2.15;;;20.20;88.70;;;;;;6300016;28;20044;-74
2021/08/07 06:31:29;;;;;;;2.58;1.35;;;20.20;87.40;;;;;;6300265;28;20048;-74
2021/08/07 06:34:31;;;;;;;2.03;0.50;;;20.40;86.80;;;;;;6299936;28;20057;-75
2021/08/07 06:37:33;;;;;;;4.70;2.13;;;20.50;85.00;;;;;;6300250;28;20048;-75
2021/08/07 06:40:35;;;;;;;1.52;0.80;;;20.70;83.40;;;;;;6299662;28;20075;-75
2021/08/07 06:43:37;;;;;;;1.77;1.20;;;20.90;81.40;;;;;;6299906;28;20097;-75
2021/08/07 06:46:40;;;;;;;3.45;1.10;;;21.10;80.50;;;;;;6299469;28;20053;-75
2021/08/07 06:49:42;;;;;;;1.15;1.00;;;21.20;80.10;;;;;;6300309;28;20135;-75
2021/08/07 06:52:44;;;;;;;9.52;1.25;;;21.30;78.70;;;;;;6299903;28;20165;-75
2021/08/07 06:55:46;;;;;;;3.15;1.60;;;21.40;78.60;;;;;;6299963;28;20145;-75
2021/08/07 06:58:48;;;;;;;2.15;1.30;;;21.40;78.90;;;;;;6299919;28;20134;-75
2021/08/07 07:01:51;;;;;;;4.30;2.55;;;21.40;78.40;;;;;;6300401;28;20094;-75
2021/08/07 07:04:53;;;;;;;3.70;1.08;;;21.40;78.70;;;;;;6298707;28;20102;-75
2021/08/07 07:07:55;;;;;;;1.75;1.00;;;21.40;78.20;;;;;;6299313;28;20040;-75
2021/08/07 07:10:56;;;;;;;8.02;1.35;;;21.30;78.20;;;;;;6299557;28;20125;-75
2021/08/07 07:13:58;;;;;;;8.65;2.22;;;21.40;78.20;;;;;;6299883;28;20080;-75
2021/08/07 07:17:01;;;;;;;3.17;1.90;;;21.50;77.80;;;;;;6299503;28;20040;-75
2021/08/07 07:20:04;;;;;;;4.68;1.08;;;21.80;77.50;;;;;;6300461;28;20421;-74
2021/08/07 07:23:06;;;;;;;1.33;0.80;;;21.90;76.00;;;;;;6302002;28;20122;-74
2021/08/07 07:26:08;;;;;;;2.88;1.13;;;21.90;75.60;;;;;;6329736;28;20032;-75
2021/08/07 07:29:10;;;;;;;2.53;1.20;;;22.00;75.50;;;;;;6328305;28;20045;-75
2021/08/07 07:32:13;;;;;;;6.75;1.67;;;22.10;74.30;;;;;;6324713;28;20033;-75
2021/08/07 07:35:15;;;;;;;3.17;1.67;;;22.20;74.40;;;;;;6325196;28;20451;-74
2021/08/07 07:38:17;;;;;;;1.63;1.08;;;22.20;74.20;;;;;;6324226;28;20067;-75
2021/08/07 07:41:18;;;;;;;1.42;1.10;;;22.30;72.90;;;;;;6330883;28;20044;-75
2021/08/07 07:44:20;;;;;;;4.57;1.05;;;22.40;72.50;;;;;;6330046;28;20033;-74
2021/08/07 07:47:23;;;;;;;2.08;1.20;;;22.50;71.90;;;;;;6327063;28;20040;-75
2021/08/07 07:50:25;;;;;;;4.13;1.23;;;22.80;70.50;;;;;;6324689;28;20040;-75
2021/08/07 07:53:27;;;;;;;1.63;1.30;;;23.00;69.10;;;;;;6305809;28;20054;-75
2021/08/07 07:56:29;;;;;;;2.75;1.50;;;23.20;68.80;;;;;;6297948;28;20048;-74
2021/08/07 07:59:31;;;;;;;2.85;0.70;;;23.60;69.10;;;;;;6297852;28;20044;-74
2021/08/07 08:02:35;;;;;;;1.85;0.68;;;24.10;65.50;;;;;;6298104;28;20133;-75
2021/08/07 08:05:36;;;;;;;2.65;0.80;;;24.10;64.10;;;;;;6298016;28;20052;-75
2021/08/07 08:08:38;;;;;;;3.47;1.00;;;24.00;64.40;;;;;;6297732;28;20181;-75
2021/08/07 08:11:40;;;;;;;2.15;0.90;;;23.90;64.90;;;;;;6297664;28;20051;-75
2021/08/07 08:14:42;;;;;;;4.00;1.77;;;24.00;64.70;;;;;;6297366;28;20135;-74
2021/08/07 08:17:45;;;;;;;3.13;0.90;;;24.10;64.70;;;;;;6297015;28;20049;-74
2021/08/07 08:20:47;;;;;;;5.15;1.15;;;24.20;63.50;;;;;;6297638;28;20114;-75
2021/08/07 08:23:49;;;;;;;3.10;1.05;;;24.30;64.10;;;;;;6297315;28;20525;-76
2021/08/07 08:26:51;;;;;;;1.30;0.75;;;24.50;63.90;;;;;;6296857;28;20406;-75
2021/08/07 08:29:53;;;;;;;5.28;1.05;;;24.50;63.80;;;;;;6297740;28;20052;-75
2021/08/07 08:32:56;;;;;;;4.68;0.88;;;24.60;63.40;;;;;;6297023;28;20075;-75
2021/08/07 08:35:58;;;;;;;2.70;1.42;;;24.70;62.80;;;;;;6296824;28;20072;-75
2021/08/07 08:39:00;;;;;;;4.13;1.27;;;24.70;62.60;;;;;;6296839;28;20368;-75
2021/08/07 08:42:02;;;;;;;0.95;0.90;;;24.70;62.20;;;;;;6297495;28;20048;-75
2021/08/07 08:45:04;;;;;;;2.72;2.13;;;24.50;62.50;;;;;;6296850;28;20040;-75
2021/08/07 08:48:08;;;;;;;6.65;2.22;;;24.40;62.70;;;;;;6296615;28;20186;-75
2021/08/07 08:51:11;;;;;;;2.00;1.15;;;24.40;63.40;;;;;;6297104;28;20525;-75
2021/08/07 08:54:13;;;;;;;1.95;1.05;;;24.70;62.80;;;;;;6297229;28;20109;-75
2021/08/07 08:57:15;;;;;;;6.95;1.25;;;24.80;61.50;;;;;;6296227;28;20516;-75
2021/08/07 09:00:17;;;;;;;2.30;1.42;;;24.80;61.50;;;;;;6296312;28;20605;-75
2021/08/07 09:03:20;;;;;;;6.15;2.67;;;24.90;61.00;;;;;;6294178;28;20124;-75
2021/08/07 09:06:22;;;;;;;6.68;1.30;;;25.00;61.30;;;;;;6296115;28;20135;-76
2021/08/07 09:09:36;;;;;;;1.55;1.10;;;25.10;60.90;;;;;;6296268;28;20137;-75
2021/08/07 09:12:40;;;;;;;3.13;1.40;;;25.00;62.00;;;;;;6296205;28;20051;-75
2021/08/07 09:15:42;;;;;;;2.72;1.35;;;24.90;62.00;;;;;;6295900;28;20051;-74
2021/08/07 09:18:46;;;;;;;2.97;1.00;;;24.80;61.80;;;;;;6296043;28;20405;-76
2021/08/07 09:22:05;;;;;;;2.67;1.52;;;24.60;63.20;;;;;;6296372;28;20179;-75
2021/08/07 09:25:11;;;;;;;2.22;0.93;;;24.50;63.00;;;;;;6296244;28;20567;-76
2021/08/07 09:28:13;;;;;;;1.35;1.00;;;24.50;64.20;;;;;;6293671;28;20147;-75
2021/08/07 09:31:15;;;;;;;4.20;1.30;;;24.40;63.40;;;;;;6277592;28;20130;-75
2021/08/07 09:34:21;;;;;;;5.43;1.33;;;24.40;64.10;;;;;;6271502;28;20132;-75
2021/08/07 09:37:23;;;;;;;3.03;0.80;;;24.40;63.90;;;;;;6270415;28;20118;-75
2021/08/07 09:40:38;;;;;;;8.00;1.58;;;24.30;63.50;;;;;;6271291;28;20045;-75
2021/08/07 09:43:46;;;;;;;3.88;1.10;;;24.10;65.00;;;;;;6270845;28;20071;-77
2021/08/07 09:46:48;;;;;;;2.97;1.10;;;24.10;65.50;;;;;;6270568;28;20557;-75
2021/08/07 09:49:51;;;;;;;3.58;1.38;;;24.00;65.20;;;;;;6271375;28;20084;-76
2021/08/07 09:52:54;;;;;;;3.65;1.25;;;24.00;65.80;;;;;;6270988;28;20095;-75
2021/08/07 09:56:03;;;;;;;3.70;1.13;;;23.90;65.80;;;;;;6270500;28;20073;-77
2021/08/07 09:59:08;;;;;;;1.08;1.00;;;23.70;67.20;;;;;;6270790;28;20045;-75
2021/08/07 10:02:20;;;;;;;1.55;1.25;;;23.60;67.30;;;;;;6271139;28;20060;-75
2021/08/07 10:05:27;;;;;;;3.03;2.55;;;23.50;68.40;;;;;;6270750;28;20086;-74
2021/08/07 10:08:47;;;;;;;2.88;1.30;;;23.50;68.20;;;;;;6270501;28;20061;-74
2021/08/07 10:12:01;;;;;;;1.67;0.90;;;23.60;68.00;;;;;;6270912;28;20049;-75
2021/08/07 10:15:03;;;;;;;2.20;1.08;;;23.60;67.70;;;;;;6292510;28;20041;-75
2021/08/07 10:18:06;;;;;;;3.45;2.00;;;23.70;67.30;;;;;;6295621;28;20098;-75
2021/08/07 10:21:10;;;;;;;1.88;1.23;;;23.60;66.80;;;;;;6295572;28;20059;-75
2021/08/07 10:24:12;;;;;;;2.97;1.48;;;23.50;67.40;;;;;;6295686;28;20044;-75
2021/08/07 10:27:18;;;;;;;4.85;1.38;;;23.50;68.50;;;;;;6294940;28;20044;-77
2021/08/07 10:30:22;;;;;;;1.77;0.95;;;23.50;67.20;;;;;;6295026;28;20080;-75
2021/08/07 10:33:26;;;;;;;1.30;0.80;;;23.40;67.60;;;;;;6291620;28;20091;-75
2021/08/07 10:36:30;;;;;;;1.67;1.02;;;23.50;68.10;;;;;;6294694;28;20040;-75
2021/08/07 10:39:32;;;;;;;2.72;1.23;;;23.50;68.40;;;;;;6297268;28;20070;-75
2021/08/07 10:42:35;;;;;;;3.53;1.38;;;23.50;69.20;;;;;;6299853;28;20124;-75
2021/08/07 10:45:41;;;;;;;1.40;0.93;;;23.50;70.00;;;;;;6300080;28;20133;-75
2021/08/07 10:48:45;;;;;;;3.78;1.85;;;23.50;69.40;;;;;;6299536;28;20044;-76
2021/08/07 10:51:48;;;;;;;4.72;1.63;;;23.50;69.40;;;;;;6299365;28;20525;-75
2021/08/07 10:54:50;;;;;;;3.03;1.23;;;23.50;69.60;;;;;;6299342;28;20140;-75
2021/08/07 10:57:52;;;;;;;4.53;1.35;;;23.50;70.20;;;;;;6299586;28;20133;-75
2021/08/07 11:00:54;;;;;;;2.58;1.38;;;23.40;70.50;;;;;;6299260;28;20072;-75
2021/08/07 11:04:11;;;;;;;5.28;1.10;;;23.40;70.00;;;;;;6299265;28;20048;-75
2021/08/07 11:07:20;;;;;;;1.52;1.20;;;23.40;70.10;;;;;;6298845;28;20040;-75
2021/08/07 11:10:32;;;;;;;1.90;1.40;;;23.30;70.40;;;;;;6299898;28;20205;-75
2021/08/07 11:13:33;;;;;;;3.85;1.00;;;23.20;70.80;;;;;;6298773;28;20036;-75
2021/08/07 11:16:35;;;;;;;3.22;1.35;;;23.20;71.20;;;;;;6298829;28;20456;-75
2021/08/07 11:19:48;;;;;;;4.60;1.10;;;23.10;71.80;;;;;;6298743;28;20137;-76
2021/08/07 11:23:10;;;;;;;2.97;1.50;;;23.00;72.70;;;;;;6298719;28;20060;-75
2021/08/07 11:26:12;;;;;;;2.17;1.15;;;23.00;73.60;;;;;;6299064;28;20168;-75
2021/08/07 11:29:14;;;;;;;4.72;1.50;;;22.90;75.00;;;;;;6298326;28;20110;-75
2021/08/07 11:32:16;;;;;;;2.15;1.30;;;22.90;75.30;;;;;;6283966;28;20041;-75
2021/08/07 11:35:18;;;;;;;3.10;1.30;;;22.80;75.10;;;;;;6273106;28;20139;-76
2021/08/07 11:38:24;;;;;;;2.67;1.40;;;22.60;75.10;;;;;;6273410;28;20565;-75
2021/08/07 11:41:34;;;;;;;3.38;1.30;;;22.40;76.00;;;;;;6273545;28;20562;-74
2021/08/07 11:44:36;;;;;;;2.50;1.77;;;22.10;77.50;;;;;;6273137;28;20117;-74
2021/08/07 11:47:49;;;;;;;3.63;1.58;;;21.70;78.50;;;;;;6273024;28;20037;-74
2021/08/07 11:50:51;;;;;;;1.42;1.33;;;21.30;79.90;;;;;;6272788;28;20041;-75
2021/08/07 11:53:55;;;;;;;2.75;1.60;;;21.00;82.50;;;;;;6273570;28;20041;-74
2021/08/07 11:56:56;;;;;;;3.28;2.42;;;20.70;84.30;;;;;;6271894;28;20045;-75
2021/08/07 12:00:26;;;;;;;4.68;1.60;;;20.50;85.00;;;;;;6273002;28;20644;-75
2021/08/07 12:03:38;;;;;;;2.47;1.55;;;20.30;86.90;;;;;;6272882;28;20119;-75
2021/08/07 12:06:41;;;;;;;5.03;2.30;;;20.10;88.10;;;;;;6272631;28;20056;-74
2021/08/07 12:10:06;;;;;;;3.28;1.90;;;19.80;89.30;;;;;;6272966;28;20087;-75
2021/08/07 12:13:07;;;;;;;3.55;1.65;;;19.80;90.40;;;;;;6278536;28;20037;-75
2021/08/07 12:16:11;;;;;;;5.30;1.90;;;19.70;91.40;;;;;;6297093;28;20124;-75
2021/08/07 12:19:17;;;;;;;4.05;1.60;;;19.60;92.10;;;;;;6297242;28;20070;-74
2021/08/07 12:22:19;;;;;;;3.50;2.28;;;19.50;93.00;;;;;;6297585;28;20047;-74
2021/08/07 12:25:22;;;;;;;3.63;2.47;;;19.40;93.90;;;;;;6297102;28;20110;-74
2021/08/07 12:28:29;;;;;;;5.22;2.55;;;19.30;95.10;;;;;;6296679;28;20049;-74
2021/08/07 12:31:47;;;;;;;8.00;2.50;;;19.20;96.70;;;;;;6297022;28;20040;-74
2021/08/07 12:34:49;;;;;;;3.30;1.98;;;19.10;98.80;;;;;;6270516;28;20189;-74
2021/08/07 12:37:50;;;;;;;4.30;2.50;;;19.10;99.90;;;;;;6272351;28;20084;-73
2021/08/07 12:40:57;;;;;;;5.80;2.90;;;18.90;99.90;;;;;;6271555;28;20053;-74
2021/08/07 12:43:59;;;;;;;5.80;3.13;;;18.90;99.90;;;;;;6272023;28;20047;-74
2021/08/07 12:47:01;;;;;;;7.35;2.13;;;18.80;99.90;;;;;;6271357;28;20089;-74
2021/08/07 12:50:10;;;;;;;3.28;2.97;;;18.70;99.90;;;;;;6272384;28;20136;-75
2021/08/07 12:53:11;;;;;;;4.63;2.42;;;18.70;99.90;;;;;;6271831;28;20045;-74
2021/08/07 12:56:15;;;;;;;5.38;2.47;;;18.70;99.90;;;;;;6271428;28;20122;-74
2021/08/07 12:59:18;;;;;;;4.05;2.13;;;18.60;99.90;;;;;;6271616;28;20047;-74
2021/08/07 13:02:21;;;;;;;4.45;2.22;;;18.70;99.90;;;;;;6271293;28;20644;-73
2021/08/07 13:05:32;;;;;;;5.00;2.40;;;18.70;99.90;;;;;;6271275;28;20041;-74
2021/08/07 13:08:34;;;;;;;6.60;2.78;;;18.70;99.90;;;;;;6271706;28;20052;-74
2021/08/07 13:11:37;;;;;;;3.70;2.85;;;18.70;99.90;;;;;;6271155;28;20672;-75
2021/08/07 13:14:42;;;;;;;4.38;2.65;;;18.80;99.90;;;;;;6290108;28;20170;-74
2021/08/07 13:17:45;;;;;;;2.85;2.28;;;18.90;99.90;;;;;;6296281;28;20129;-75
2021/08/07 13:20:50;;;;;;;4.43;2.55;;;19.00;99.90;;;;;;6296206;28;20056;-74
2021/08/07 13:23:51;;;;;;;2.22;1.90;;;19.10;99.90;;;;;;6296105;28;20045;-75
2021/08/07 13:26:55;;;;;;;4.30;2.72;;;19.10;99.90;;;;;;6295399;28;20193;-75
2021/08/07 13:30:00;;;;;;;3.38;1.98;;;19.20;99.90;;;;;;6296204;28;20056;-75
2021/08/07 13:33:03;;;;;;;4.28;2.53;;;19.20;99.90;;;;;;6292517;28;20045;-75
2021/08/07 13:36:06;;;;;;;4.47;2.30;;;19.30;99.90;;;;;;6289533;28;20052;-75
2021/08/07 13:39:08;;;;;;;3.50;2.10;;;19.30;99.90;;;;;;6295759;28;20116;-74
2021/08/07 13:42:12;;;;;;;3.72;2.28;;;19.30;99.90;;;;;;6296384;28;20048;-74
2021/08/07 13:45:14;;;;;;;2.63;2.05;;;19.30;99.90;;;;;;6295349;28;20052;-75
2021/08/07 13:48:18;;;;;;;3.47;2.78;;;19.30;99.90;;;;;;6295292;28;20044;-75
2021/08/07 13:51:20;;;;;;;5.40;2.28;;;19.30;99.90;;;;;;6295714;28;20514;-75
2021/08/07 13:54:22;;;;;;;3.83;2.70;;;19.30;99.90;;;;;;6296196;28;20091;-74
2021/08/07 13:57:25;;;;;;;5.80;2.50;;;19.30;99.90;;;;;;6295496;28;20058;-75
2021/08/07 14:00:27;;;;;;;2.58;2.38;;;19.40;99.90;;;;;;6295740;28;20044;-75
2021/08/07 14:03:29;;;;;;;3.00;2.60;;;19.40;99.90;;;;;;6295544;28;20433;-75
2021/08/07 14:06:31;;;;;;;2.25;1.80;;;19.40;99.90;;;;;;6295278;28;20077;-73
2021/08/07 14:09:33;;;;;;;2.42;2.22;;;19.50;99.90;;;;;;6296158;28;20101;-75
2021/08/07 14:12:37;;;;;;;4.13;2.83;;;19.50;99.90;;;;;;6296007;28;20044;-75
2021/08/07 14:15:38;;;;;;;2.53;2.10;;;19.50;99.90;;;;;;6300758;28;20048;-75
2021/08/07 14:18:41;;;;;;;3.45;2.38;;;19.60;99.90;;;;;;6301651;28;20134;-75
2021/08/07 14:21:42;;;;;;;3.25;2.55;;;19.70;99.90;;;;;;6301076;28;20044;-75
2021/08/07 14:24:44;;;;;;;2.65;2.20;;;19.70;99.90;;;;;;6300792;28;20071;-74
2021/08/07 14:27:48;;;;;;;5.78;2.22;;;19.70;99.90;;;;;;6300159;28;20078;-74
2021/08/07 14:30:49;;;;;;;8.02;3.13;;;19.80;99.90;;;;;;6300121;28;20134;-75
2021/08/07 14:33:51;;;;;;;3.25;2.25;;;19.90;99.90;;;;;;6299078;28;20108;-75
2021/08/07 14:36:53;;;;;;;14.82;3.45;;;20.10;99.90;;;;;;6273061;28;20053;-74
2021/08/07 14:39:55;;;;;;;2.70;2.08;;;20.30;99.90;;;;;;6274926;28;20065;-75
2021/08/07 14:42:58;;;;;;;5.60;2.30;;;20.50;99.90;;;;;;6274672;28;20106;-74
2021/08/07 14:46:00;;;;;;;2.45;1.58;;;20.60;99.90;;;;;;6274784;28;20134;-74
2021/08/07 14:49:02;;;;;;;3.70;1.95;;;20.60;99.90;;;;;;6274821;28;20579;-74
2021/08/07 14:52:04;;;;;;;3.72;2.28;;;20.50;99.90;;;;;;6275022;28;20079;-74
2021/08/07 14:55:07;;;;;;;3.78;1.42;;;20.40;99.90;;;;;;6274733;28;20048;-74
2021/08/07 14:58:13;;;;;;;3.15;2.20;;;20.30;99.90;;;;;;6274360;28;20560;-74
2021/08/07 15:01:18;;;;;;;4.40;2.42;;;20.20;99.90;;;;;;6274634;28;20052;-74
2021/08/07 15:04:20;;;;;;;2.83;2.45;;;20.20;99.90;;;;;;6275670;28;20575;-74
2021/08/07 15:07:22;;;;;;;3.17;1.80;;;20.20;99.90;;;;;;6298283;28;20451;-74
2021/08/07 15:10:24;;;;;;;3.15;1.95;;;20.20;99.90;;;;;;6299587;28;20529;-74
2021/08/07 15:13:28;;;;;;;2.88;2.05;;;20.20;99.90;;;;;;6299192;28;20395;-74
2021/08/07 15:16:30;;;;;;;2.22;2.03;;;20.30;99.90;;;;;;6298468;28;20051;-74
2021/08/07 15:19:32;;;;;;;1.48;1.30;;;20.30;99.90;;;;;;6298799;28;20133;-74
2021/08/07 15:22:34;;;;;;;4.20;1.73;;;20.40;99.90;;;;;;6299126;28;20048;-74
2021/08/07 15:25:36;;;;;;;1.90;1.42;;;20.50;99.90;;;;;;6298551;28;20162;-75
2021/08/07 15:28:39;;;;;;;3.05;1.63;;;20.50;99.40;;;;;;6299265;28;20131;-74
2021/08/07 15:31:43;;;;;;;3.28;1.98;;;20.50;98.20;;;;;;6299702;28;20067;-74
2021/08/07 15:34:45;;;;;;;2.70;1.55;;;20.50;97.80;;;;;;6298045;28;20040;-74
2021/08/07 15:37:46;;;;;;;2.67;1.25;;;20.60;97.60;;;;;;6275381;28;20056;-75
2021/08/07 15:40:52;;;;;;;2.22;1.40;;;20.70;97.40;;;;;;6273460;28;20457;-73
2021/08/07 15:43:55;;;;;;;1.23;1.10;;;20.80;94.00;;;;;;6273276;28;20045;-74
2021/08/07 15:46:57;;;;;;;1.42;1.08;;;20.80;93.40;;;;;;6272955;28;20041;-75
2021/08/07 15:49:59;;;;;;;2.85;0.95;;;21.00;93.10;;;;;;6273435;28;20197;-74
2021/08/07 15:53:03;;;;;;;1.48;1.00;;;21.00;90.80;;;;;;6273139;28;20051;-74